createdAt,value
2023-02-05T00:00:06.595Z,4.77
2023-02-05T00:03:08.626Z,4.80
2023-02-05T00:06:11.061Z,4.63
2023-02-05T00:09:13.040Z,4.83
2023-02-05T00:12:15.402Z,4.83
2023-02-05T00:15:17.434Z,4.00
2023-02-05T00:18:19.731Z,4.53
2023-02-05T00:21:22.872Z,4.93
2023-02-05T00:24:25.322Z,4.27
2023-02-05T00:27:27.729Z,4.00
2023-02-05T00:30:30.300Z,4.30
2023-02-05T00:33:32.395Z,4.00
2023-02-05T00:36:34.652Z,4.00
2023-02-05T00:39:36.647Z,3.50
2023-02-05T00:42:39.112Z,3.73
2023-02-05T00:45:41.096Z,4.40
2023-02-05T00:48:43.903Z,5.03
2023-02-05T00:51:45.914Z,4.43
2023-02-05T00:54:48.190Z,3.90
2023-02-05T00:57:50.311Z,3.93
2023-02-05T01:00:52.732Z,3.87
2023-02-05T01:03:54.744Z,4.60
2023-02-05T01:06:57.049Z,4.20
2023-02-05T01:09:59.070Z,4.03
2023-02-05T01:13:01.570Z,4.83
2023-02-05T01:16:04.316Z,4.07
2023-02-05T01:19:08.208Z,3.60
2023-02-05T01:22:11.535Z,4.43
2023-02-05T01:25:13.858Z,4.20
2023-02-05T01:28:17.243Z,4.00
2023-02-05T01:31:20.709Z,4.63
2023-02-05T01:34:22.826Z,4.10
2023-02-05T01:37:25.410Z,4.30
2023-02-05T01:40:27.825Z,4.40
2023-02-05T01:43:30.174Z,4.80
2023-02-05T01:46:32.500Z,5.37
2023-02-05T01:49:39.089Z,5.33
2023-02-05T01:52:41.399Z,5.40
2023-02-05T01:56:08.348Z,5.53
2023-02-05T01:59:18.877Z,5.20
2023-02-05T02:02:21.273Z,5.10
2023-02-05T02:05:23.406Z,5.70
2023-02-05T02:08:26.564Z,5.80
2023-02-05T02:11:31.108Z,5.53
2023-02-05T02:14:36.107Z,5.67
2023-02-05T02:17:42.502Z,5.73
2023-02-05T02:20:46.406Z,5.50
2023-02-05T02:24:03.617Z,5.73
2023-02-05T02:27:11.639Z,5.27
2023-02-05T02:30:16.406Z,6.30
2023-02-05T02:33:48.246Z,7.33
2023-02-05T02:37:06.988Z,6.13
2023-02-05T02:40:28.882Z,5.60
2023-02-05T02:43:34.510Z,5.80
2023-02-05T02:46:52.172Z,5.93
2023-02-05T02:49:59.634Z,5.23
2023-02-05T02:53:16.912Z,5.10
2023-02-05T02:56:20.652Z,5.53
2023-02-05T02:59:25.822Z,5.43
2023-02-05T03:02:32.293Z,6.90
2023-02-05T03:05:36.346Z,6.00
2023-02-05T03:08:50.058Z,7.40
2023-02-05T03:11:52.449Z,12.47
2023-02-05T03:14:55.374Z,12.87
2023-02-05T03:17:58.101Z,11.63
2023-02-05T03:21:12.863Z,28.23
2023-02-05T03:24:15.650Z,20.23
2023-02-05T03:27:17.754Z,30.33
2023-02-05T03:30:21.076Z,23.93
2023-02-05T03:33:55.110Z,21.27
2023-02-05T03:37:35.517Z,17.97
2023-02-05T03:41:03.392Z,13.67
2023-02-05T03:44:14.578Z,15.73
2023-02-05T03:47:45.759Z,7.53
2023-02-05T03:51:10.364Z,8.03
2023-02-05T03:54:22.483Z,12.40
2023-02-05T03:57:30.756Z,10.47
2023-02-05T04:00:33.462Z,7.27
2023-02-05T04:03:35.956Z,9.50
2023-02-05T04:06:38.309Z,7.40
2023-02-05T04:09:40.553Z,7.60
2023-02-05T04:12:42.550Z,6.67
2023-02-05T04:15:44.820Z,6.60
2023-02-05T04:18:46.849Z,6.90
2023-02-05T04:21:49.215Z,6.20
2023-02-05T04:24:51.226Z,6.47
2023-02-05T04:27:54.507Z,6.70
2023-02-05T04:30:56.515Z,7.67
2023-02-05T04:34:00.039Z,10.93
2023-02-05T04:37:02.519Z,11.03
2023-02-05T04:40:05.548Z,13.83
2023-02-05T04:43:07.713Z,11.53
2023-02-05T04:46:11.710Z,14.00
2023-02-05T04:49:13.762Z,17.30
2023-02-05T04:52:16.112Z,12.90
2023-02-05T04:55:18.095Z,16.47
2023-02-05T04:58:21.448Z,23.10
2023-02-05T05:01:24.289Z,26.93
2023-02-05T05:04:26.884Z,19.80
2023-02-05T05:07:31.227Z,16.60
2023-02-05T05:10:33.526Z,13.00
2023-02-05T05:13:35.850Z,12.57
2023-02-05T05:16:38.108Z,11.20
2023-02-05T05:19:40.341Z,11.57
2023-02-05T05:22:42.658Z,11.23
2023-02-05T05:25:46.886Z,11.23
2023-02-05T05:28:54.193Z,10.27
2023-02-05T05:31:56.263Z,11.40
2023-02-05T05:34:58.981Z,10.30
2023-02-05T05:38:01.734Z,10.63
2023-02-05T05:41:39.728Z,10.33
2023-02-05T05:44:41.813Z,9.07
2023-02-05T05:47:44.185Z,10.00
2023-02-05T05:50:46.630Z,11.10
2023-02-05T05:53:49.032Z,9.63
2023-02-05T05:56:51.040Z,10.13
2023-02-05T05:59:53.388Z,10.37
2023-02-05T06:02:55.347Z,10.10
2023-02-05T06:05:59.920Z,10.90
2023-02-05T06:09:01.922Z,9.97
2023-02-05T06:12:04.355Z,10.40
2023-02-05T06:15:07.437Z,10.70
2023-02-05T06:18:09.856Z,9.30
2023-02-05T06:21:11.884Z,9.60
2023-02-05T06:24:14.195Z,10.03
2023-02-05T06:27:16.214Z,9.33
2023-02-05T06:30:18.758Z,8.70
2023-02-05T06:33:20.710Z,9.20
2023-02-05T06:36:23.373Z,10.03
2023-02-05T06:39:25.467Z,9.50
2023-02-05T06:42:28.543Z,9.73
2023-02-05T06:45:30.683Z,9.73
2023-02-05T06:48:32.968Z,10.33
2023-02-05T06:51:35.008Z,9.43
2023-02-05T06:54:38.761Z,10.43
2023-02-05T06:57:40.747Z,12.90
2023-02-05T07:00:43.159Z,15.90
2023-02-05T07:03:45.278Z,21.33
2023-02-05T07:06:47.552Z,21.30
2023-02-05T07:09:49.839Z,20.47
2023-02-05T07:12:52.086Z,20.70
2023-02-05T07:15:54.122Z,22.20
2023-02-05T07:18:57.586Z,23.60
2023-02-05T07:21:59.662Z,25.63
2023-02-05T07:25:04.208Z,26.97
2023-02-05T07:28:08.425Z,26.53
2023-02-05T07:31:15.294Z,31.60
2023-02-05T07:34:17.383Z,23.60
2023-02-05T07:37:21.415Z,20.43
2023-02-05T07:40:23.612Z,20.03
2023-02-05T07:43:25.969Z,20.40
2023-02-05T07:46:28.152Z,28.70
2023-02-05T07:49:30.594Z,23.83
2023-02-05T07:52:33.753Z,23.37
2023-02-05T07:55:36.309Z,31.23
2023-02-05T07:58:38.583Z,30.27
2023-02-05T08:01:48.902Z,31.00
2023-02-05T08:04:54.272Z,22.27
2023-02-05T08:07:56.606Z,22.80
2023-02-05T08:11:04.025Z,21.63
2023-02-05T08:14:06.436Z,20.13
2023-02-05T08:17:08.418Z,21.60
2023-02-05T08:20:11.427Z,21.70
2023-02-05T08:23:13.633Z,17.10
2023-02-05T08:26:16.554Z,21.10
2023-02-05T08:29:18.836Z,19.07
2023-02-05T08:32:21.164Z,16.43
2023-02-05T08:35:23.241Z,13.23
2023-02-05T08:38:29.439Z,12.27
2023-02-05T08:41:31.530Z,10.17
2023-02-05T08:44:34.860Z,10.43
2023-02-05T08:47:37.186Z,11.97
2023-02-05T08:50:39.554Z,11.47
2023-02-05T08:53:42.105Z,15.03
2023-02-05T08:56:45.322Z,11.60
2023-02-05T08:59:48.453Z,16.17
2023-02-05T09:02:50.789Z,13.30
2023-02-05T09:05:53.008Z,13.67
2023-02-05T09:08:55.327Z,21.07
2023-02-05T09:11:58.688Z,18.10
2023-02-05T09:15:01.034Z,25.37
2023-02-05T09:18:03.066Z,12.60
2023-02-05T09:21:10.102Z,14.53
2023-02-05T09:24:12.098Z,12.17
2023-02-05T09:27:15.025Z,16.43
2023-02-05T09:30:17.187Z,20.03
2023-02-05T09:33:19.523Z,11.67
2023-02-05T09:36:23.463Z,10.37
2023-02-05T09:40:01.960Z,10.53
2023-02-05T09:43:03.160Z,9.73
2023-02-05T09:46:33.685Z,14.10
2023-02-05T09:49:47.118Z,16.20
2023-02-05T09:52:54.197Z,31.10
2023-02-05T09:55:57.650Z,19.63
2023-02-05T09:59:00.276Z,47.07
2023-02-05T10:02:16.658Z,18.97
2023-02-05T10:05:23.733Z,10.73
2023-02-05T10:08:39.578Z,11.00
2023-02-05T10:11:43.018Z,11.03
2023-02-05T10:15:19.679Z,12.10
2023-02-05T10:18:46.578Z,12.20
2023-02-05T10:22:12.670Z,10.77
2023-02-05T10:25:35.150Z,17.97
2023-02-05T10:28:57.464Z,10.43
2023-02-05T10:32:07.665Z,9.47
2023-02-05T10:35:23.910Z,9.57
2023-02-05T10:38:29.204Z,9.07
2023-02-05T10:41:53.019Z,9.27
2023-02-05T10:45:04.770Z,8.70
2023-02-05T10:48:09.898Z,8.27
2023-02-05T10:51:16.746Z,8.53
2023-02-05T10:54:29.414Z,8.87
2023-02-05T10:57:35.477Z,9.00
2023-02-05T11:00:39.121Z,16.30
2023-02-05T11:03:56.302Z,9.37
2023-02-05T11:06:58.651Z,8.37
2023-02-05T11:10:26.304Z,9.10
2023-02-05T11:13:30.160Z,16.80
2023-02-05T11:16:42.003Z,18.30
2023-02-05T11:19:59.140Z,14.43
2023-02-05T11:23:16.424Z,9.37
2023-02-05T11:26:21.154Z,9.80
2023-02-05T11:29:33.111Z,9.90
2023-02-05T11:32:37.765Z,9.60
2023-02-05T11:35:40.217Z,10.13
2023-02-05T11:38:54.449Z,8.13
2023-02-05T11:41:58.599Z,8.57
2023-02-05T11:45:05.265Z,8.37
2023-02-05T11:48:28.377Z,7.23
2023-02-05T11:51:36.364Z,7.20
2023-02-05T11:54:43.747Z,6.20
2023-02-05T11:57:46.022Z,6.27
2023-02-05T12:00:57.748Z,6.17
2023-02-05T12:04:11.564Z,6.93
2023-02-05T12:07:16.666Z,6.30
2023-02-05T12:10:26.845Z,7.43
2023-02-05T12:14:02.189Z,8.43
2023-02-05T12:17:23.365Z,9.33
2023-02-05T12:20:38.795Z,9.20
2023-02-05T12:23:58.939Z,9.03
2023-02-05T12:27:45.979Z,9.23
2023-02-05T12:31:27.485Z,8.23
2023-02-05T12:34:41.327Z,10.27
2023-02-05T12:38:21.134Z,7.60
2023-02-05T12:41:51.518Z,7.67
2023-02-05T12:45:01.687Z,6.70
2023-02-05T12:48:32.628Z,6.97
2023-02-05T12:51:43.284Z,6.80
2023-02-05T12:55:08.408Z,6.90
2023-02-05T12:58:16.663Z,6.80
2023-02-05T13:01:32.087Z,6.80
2023-02-05T13:04:44.418Z,7.27
2023-02-05T13:07:49.621Z,6.60
2023-02-05T13:11:12.703Z,7.00
2023-02-05T13:14:21.841Z,6.83
2023-02-05T13:17:29.799Z,6.47
2023-02-05T13:21:08.088Z,5.73
2023-02-05T13:24:46.442Z,6.60
2023-02-05T13:28:13.247Z,6.33
2023-02-05T13:31:25.774Z,5.87
2023-02-05T13:34:36.988Z,6.10
2023-02-05T13:37:51.559Z,6.53
2023-02-05T13:41:21.739Z,6.30
2023-02-05T13:44:54.500Z,6.67
2023-02-05T13:48:31.191Z,6.70
2023-02-05T13:51:55.845Z,6.77
2023-02-05T13:55:19.884Z,6.80
2023-02-05T13:58:34.524Z,6.17
2023-02-05T14:01:43.210Z,6.10
2023-02-05T14:04:54.816Z,6.07
2023-02-05T14:08:04.761Z,5.93
2023-02-05T14:11:07.043Z,6.47
2023-02-05T14:14:30.925Z,6.03
2023-02-05T14:17:32.883Z,6.53
2023-02-05T14:20:38.483Z,6.97
2023-02-05T14:23:46.490Z,6.57
2023-02-05T14:26:58.608Z,7.83
2023-02-05T14:30:33.099Z,7.10
2023-02-05T14:33:46.046Z,7.03
2023-02-05T14:36:51.278Z,8.00
2023-02-05T14:40:00.370Z,6.30
2023-02-05T14:43:19.968Z,6.23
2023-02-05T14:46:49.507Z,5.63
2023-02-05T14:50:09.699Z,6.13
2023-02-05T14:53:26.647Z,6.67
2023-02-05T14:56:44.011Z,5.70
2023-02-05T15:00:02.548Z,6.33
2023-02-05T15:03:22.630Z,5.50
2023-02-05T15:06:34.452Z,6.40
2023-02-05T15:10:02.034Z,6.33
2023-02-05T15:13:16.920Z,7.53
2023-02-05T15:16:21.654Z,7.93
2023-02-05T15:19:24.164Z,8.87
2023-02-05T15:22:28.805Z,8.87
2023-02-05T15:25:58.353Z,9.17
2023-02-05T15:29:35.577Z,12.40
2023-02-05T15:33:04.143Z,12.10
2023-02-05T15:36:17.554Z,12.87
2023-02-05T15:39:24.765Z,15.20
2023-02-05T15:42:40.504Z,16.90
2023-02-05T15:45:45.194Z,22.30
2023-02-05T15:48:47.325Z,51.17
2023-02-05T15:51:51.139Z,38.57
2023-02-05T15:55:08.933Z,27.47
2023-02-05T15:58:13.656Z,30.07
2023-02-05T16:01:37.664Z,34.13
2023-02-05T16:04:43.718Z,20.73
2023-02-05T16:08:00.272Z,35.50
2023-02-05T16:11:05.385Z,33.47
2023-02-05T16:14:11.008Z,31.17
2023-02-05T16:17:21.529Z,28.53
2023-02-05T16:20:30.259Z,28.27
2023-02-05T16:23:42.907Z,28.33
2023-02-05T16:26:49.775Z,25.40
2023-02-05T16:29:59.019Z,32.67
2023-02-05T16:33:05.348Z,30.17
2023-02-05T16:36:20.927Z,25.97
2023-02-05T16:39:28.878Z,24.97
2023-02-05T16:42:46.094Z,25.53
2023-02-05T16:46:06.754Z,24.57
2023-02-05T16:49:25.727Z,23.97
2023-02-05T16:52:33.545Z,26.33
2023-02-05T16:55:43.740Z,25.30
2023-02-05T16:58:56.510Z,26.43
2023-02-05T17:01:59.719Z,24.83
2023-02-05T17:05:05.983Z,13.90
2023-02-05T17:08:13.434Z,16.70
2023-02-05T17:11:33.661Z,9.10
2023-02-05T17:14:36.827Z,10.20
2023-02-05T17:17:50.269Z,10.50
2023-02-05T17:21:28.882Z,26.80
2023-02-05T17:24:30.862Z,54.50
2023-02-05T17:27:37.818Z,36.63
2023-02-05T17:30:41.933Z,20.20
2023-02-05T17:33:49.437Z,19.37
2023-02-05T17:36:51.799Z,18.70
2023-02-05T17:39:55.535Z,18.63
2023-02-05T17:43:01.039Z,19.60
2023-02-05T17:46:03.686Z,26.70
2023-02-05T17:49:08.333Z,33.47
2023-02-05T17:52:10.955Z,36.13
2023-02-05T17:55:19.435Z,35.17
2023-02-05T17:58:21.860Z,35.00
2023-02-05T18:01:23.946Z,43.80
2023-02-05T18:04:26.362Z,33.10
2023-02-05T18:07:36.357Z,47.40
2023-02-05T18:10:38.829Z,37.67
2023-02-05T18:13:40.975Z,42.23
2023-02-05T18:16:43.340Z,44.40
2023-02-05T18:19:45.586Z,38.43
2023-02-05T18:22:57.349Z,37.93
2023-02-05T18:26:05.088Z,47.90
2023-02-05T18:29:07.875Z,48.17
2023-02-05T18:32:13.145Z,49.57
2023-02-05T18:35:16.182Z,49.70
2023-02-05T18:38:18.583Z,68.57
2023-02-05T18:41:28.714Z,66.13
2023-02-05T18:44:33.039Z,58.53
2023-02-05T18:47:35.263Z,83.97
2023-02-05T18:50:40.162Z,94.20
2023-02-05T18:53:45.600Z,108.70
2023-02-05T18:56:48.462Z,101.17
2023-02-05T18:59:54.760Z,89.93
2023-02-05T19:02:59.863Z,78.53
2023-02-05T19:06:09.919Z,86.77
2023-02-05T19:09:12.562Z,84.07
2023-02-05T19:12:21.018Z,80.57
2023-02-05T19:15:24.615Z,75.37
2023-02-05T19:18:35.248Z,75.40
2023-02-05T19:21:37.882Z,76.93
2023-02-05T19:24:40.910Z,77.60
2023-02-05T19:27:46.213Z,81.53
2023-02-05T19:30:50.696Z,76.83
2023-02-05T19:33:55.538Z,75.37
2023-02-05T19:37:01.435Z,68.53
2023-02-05T19:40:03.724Z,67.57
2023-02-05T19:43:10.803Z,59.00
2023-02-05T19:46:13.268Z,63.43
2023-02-05T19:49:19.216Z,66.67
2023-02-05T19:52:21.250Z,66.47
2023-02-05T19:55:26.158Z,66.13
2023-02-05T19:58:29.925Z,67.43
2023-02-05T20:01:34.460Z,67.40
2023-02-05T20:04:39.173Z,70.10
2023-02-05T20:07:41.730Z,78.00
2023-02-05T20:10:44.155Z,76.07
2023-02-05T20:13:47.697Z,74.00
2023-02-05T20:16:50.329Z,69.93
2023-02-05T20:19:59.629Z,75.10
2023-02-05T20:23:11.103Z,67.60
2023-02-05T20:26:19.145Z,66.93
2023-02-05T20:29:42.190Z,68.67
2023-02-05T20:32:45.874Z,66.03
2023-02-05T20:35:48.520Z,80.90
2023-02-05T20:38:58.187Z,81.03
2023-02-05T20:42:10.684Z,71.00
2023-02-05T20:45:15.420Z,85.13
2023-02-05T20:48:25.150Z,86.77
2023-02-05T20:51:28.132Z,98.03
2023-02-05T20:54:35.187Z,74.50
2023-02-05T20:57:38.832Z,168.33
2023-02-05T21:00:41.391Z,131.17
2023-02-05T21:03:51.740Z,112.00
2023-02-05T21:06:54.261Z,99.17
2023-02-05T21:09:56.964Z,92.60
2023-02-05T21:13:02.352Z,78.93
2023-02-05T21:16:11.592Z,68.73
2023-02-05T21:19:18.440Z,75.13
2023-02-05T21:22:20.750Z,67.50
2023-02-05T21:25:24.230Z,68.73
2023-02-05T21:28:27.111Z,57.97
2023-02-05T21:31:33.971Z,74.37
2023-02-05T21:34:36.782Z,78.00
2023-02-05T21:37:39.152Z,85.97
2023-02-05T21:40:41.528Z,84.97
2023-02-05T21:43:47.538Z,77.77
2023-02-05T21:46:49.936Z,81.10
2023-02-05T21:49:51.938Z,77.73
2023-02-05T21:52:55.082Z,76.57
2023-02-05T21:55:59.787Z,92.93
2023-02-05T21:59:02.342Z,88.30
2023-02-05T22:02:04.401Z,76.80
2023-02-05T22:05:07.215Z,74.63
2023-02-05T22:08:11.590Z,65.97
2023-02-05T22:11:14.998Z,66.20
2023-02-05T22:14:19.219Z,63.63
2023-02-05T22:17:22.497Z,83.60
2023-02-05T22:20:25.073Z,72.83
2023-02-05T22:23:27.372Z,73.47
2023-02-05T22:26:32.415Z,76.80
2023-02-05T22:29:34.865Z,69.17
2023-02-05T22:32:36.870Z,68.83
2023-02-05T22:35:39.271Z,59.67
2023-02-05T22:38:42.276Z,57.23
2023-02-05T22:41:44.826Z,51.07
2023-02-05T22:44:46.900Z,58.40
2023-02-05T22:47:49.267Z,61.57
2023-02-05T22:50:51.379Z,55.70
2023-02-05T22:53:54.811Z,56.60
2023-02-05T22:56:58.107Z,60.93
2023-02-05T23:00:00.461Z,61.80
2023-02-05T23:03:02.534Z,73.70
2023-02-05T23:06:13.769Z,114.33
2023-02-05T23:09:17.946Z,116.73
2023-02-05T23:12:20.292Z,111.33
2023-02-05T23:15:22.309Z,146.03
2023-02-05T23:18:24.602Z,158.67
2023-02-05T23:21:29.676Z,145.73
2023-02-05T23:24:32.366Z,131.13
2023-02-05T23:27:34.615Z,135.40
2023-02-05T23:30:36.974Z,130.73
2023-02-05T23:33:39.174Z,125.33
2023-02-05T23:36:41.461Z,78.77
2023-02-05T23:39:43.472Z,79.87
2023-02-05T23:42:45.693Z,80.43
2023-02-05T23:45:48.941Z,74.53
2023-02-05T23:48:51.232Z,61.93
2023-02-05T23:51:54.934Z,57.73
2023-02-05T23:54:57.639Z,63.57
2023-02-05T23:57:59.637Z,62.67
